sensor_id;sensor_type;location;lat;lon;timestamp;temperature;humidity
39951;DHT22;25629;51.444;-2.606;2023-09-19T00:00:19;14.60;36.30
39951;DHT22;25629;51.444;-2.606;2023-09-19T00:02:46;14.60;35.00
39951;DHT22;25629;51.444;-2.606;2023-09-19T00:05:12;14.60;37.60
39951;DHT22;25629;51.444;-2.606;2023-09-19T00:07:39;14.60;40.60
39951;DHT22;25629;51.444;-2.606;2023-09-19T00:10:06;14.60;40.30
39951;DHT22;25629;51.444;-2.606;2023-09-19T00:12:34;14.60;37.70
39951;DHT22;25629;51.444;-2.606;2023-09-19T00:14:59;14.60;35.90
39951;DHT22;25629;51.444;-2.606;2023-09-19T00:17:26;14.60;34.20
39951;DHT22;25629;51.444;-2.606;2023-09-19T00:19:52;14.70;30.50
39951;DHT22;25629;51.444;-2.606;2023-09-19T00:22:17;14.70;23.70
39951;DHT22;25629;51.444;-2.606;2023-09-19T00:24:44;14.80;19.50
39951;DHT22;25629;51.444;-2.606;2023-09-19T00:27:09;14.80;21.60
39951;DHT22;25629;51.444;-2.606;2023-09-19T00:29:35;14.80;36.50
39951;DHT22;25629;51.444;-2.606;2023-09-19T00:32:00;14.80;48.60
39951;DHT22;25629;51.444;-2.606;2023-09-19T00:34:28;14.70;58.30
39951;DHT22;25629;51.444;-2.606;2023-09-19T00:36:55;14.70;76.80
39951;DHT22;25629;51.444;-2.606;2023-09-19T00:39:20;14.60;90.60
39951;DHT22;25629;51.444;-2.606;2023-09-19T00:41:47;14.40;97.50
39951;DHT22;25629;51.444;-2.606;2023-09-19T00:44:13;14.30;99.90
39951;DHT22;25629;51.444;-2.606;2023-09-19T00:46:39;14.20;99.90
39951;DHT22;25629;51.444;-2.606;2023-09-19T00:49:04;14.10;99.90
39951;DHT22;25629;51.444;-2.606;2023-09-19T00:51:33;14.00;99.90
39951;DHT22;25629;51.444;-2.606;2023-09-19T00:54:01;14.00;99.90
39951;DHT22;25629;51.444;-2.606;2023-09-19T00:56:27;14.00;99.90
39951;DHT22;25629;51.444;-2.606;2023-09-19T00:58:53;14.00;99.90
39951;DHT22;25629;51.444;-2.606;2023-09-19T01:01:19;14.00;99.90
39951;DHT22;25629;51.444;-2.606;2023-09-19T01:03:45;14.10;99.90
39951;DHT22;25629;51.444;-2.606;2023-09-19T01:06:10;14.10;99.90
39951;DHT22;25629;51.444;-2.606;2023-09-19T01:08:36;14.00;99.90
39951;DHT22;25629;51.444;-2.606;2023-09-19T01:11:13;14.00;99.90
39951;DHT22;25629;51.444;-2.606;2023-09-19T01:18:43;14.00;99.90
39951;DHT22;25629;51.444;-2.606;2023-09-19T01:29:05;14.10;99.90
39951;DHT22;25629;51.444;-2.606;2023-09-19T01:31:38;14.00;99.90
39951;DHT22;25629;51.444;-2.606;2023-09-19T01:34:05;14.10;99.90
39951;DHT22;25629;51.444;-2.606;2023-09-19T01:36:32;14.00;99.90
39951;DHT22;25629;51.444;-2.606;2023-09-19T01:39:00;14.10;99.90
39951;DHT22;25629;51.444;-2.606;2023-09-19T01:41:45;14.00;99.90
39951;DHT22;25629;51.444;-2.606;2023-09-19T01:44:14;14.00;99.90
39951;DHT22;25629;51.444;-2.606;2023-09-19T01:46:43;14.00;99.90
39951;DHT22;25629;51.444;-2.606;2023-09-19T01:49:18;14.00;99.90
39951;DHT22;25629;51.444;-2.606;2023-09-19T01:54:17;14.00;99.90
39951;DHT22;25629;51.444;-2.606;2023-09-19T01:56:53;13.90;99.90
39951;DHT22;25629;51.444;-2.606;2023-09-19T01:59:24;14.00;99.90
39951;DHT22;25629;51.444;-2.606;2023-09-19T02:01:52;14.00;99.90
39951;DHT22;25629;51.444;-2.606;2023-09-19T02:04:18;14.00;99.90
39951;DHT22;25629;51.444;-2.606;2023-09-19T02:06:44;14.00;99.90
39951;DHT22;25629;51.444;-2.606;2023-09-19T02:09:13;14.00;99.90
39951;DHT22;25629;51.444;-2.606;2023-09-19T02:11:40;14.10;99.90
39951;DHT22;25629;51.444;-2.606;2023-09-19T02:14:06;14.10;99.90
39951;DHT22;25629;51.444;-2.606;2023-09-19T02:16:36;14.10;99.90
39951;DHT22;25629;51.444;-2.606;2023-09-19T02:19:02;14.10;99.90
39951;DHT22;25629;51.444;-2.606;2023-09-19T02:21:31;14.10;99.90
39951;DHT22;25629;51.444;-2.606;2023-09-19T02:23:57;14.00;99.90
39951;DHT22;25629;51.444;-2.606;2023-09-19T02:26:23;14.00;99.90
39951;DHT22;25629;51.444;-2.606;2023-09-19T02:28:48;14.10;99.90
39951;DHT22;25629;51.444;-2.606;2023-09-19T02:31:14;14.10;99.90
39951;DHT22;25629;51.444;-2.606;2023-09-19T02:33:42;14.10;99.90
39951;DHT22;25629;51.444;-2.606;2023-09-19T02:36:07;14.10;99.90
39951;DHT22;25629;51.444;-2.606;2023-09-19T02:38:34;14.10;99.90
39951;DHT22;25629;51.444;-2.606;2023-09-19T02:40:59;14.10;99.90
39951;DHT22;25629;51.444;-2.606;2023-09-19T02:43:25;14.20;99.90
39951;DHT22;25629;51.444;-2.606;2023-09-19T02:45:51;14.20;99.90
39951;DHT22;25629;51.444;-2.606;2023-09-19T02:48:18;14.30;99.90
39951;DHT22;25629;51.444;-2.606;2023-09-19T02:50:44;14.30;99.90
39951;DHT22;25629;51.444;-2.606;2023-09-19T02:53:10;14.40;99.90
39951;DHT22;25629;51.444;-2.606;2023-09-19T02:55:38;14.40;99.90
39951;DHT22;25629;51.444;-2.606;2023-09-19T02:58:05;14.50;99.90
39951;DHT22;25629;51.444;-2.606;2023-09-19T03:00:33;14.50;99.90
39951;DHT22;25629;51.444;-2.606;2023-09-19T03:02:59;14.50;99.90
39951;DHT22;25629;51.444;-2.606;2023-09-19T03:05:25;14.50;99.90
39951;DHT22;25629;51.444;-2.606;2023-09-19T03:07:51;14.50;99.90
39951;DHT22;25629;51.444;-2.606;2023-09-19T03:10:20;14.50;99.90
39951;DHT22;25629;51.444;-2.606;2023-09-19T03:12:46;14.60;99.90
39951;DHT22;25629;51.444;-2.606;2023-09-19T03:15:12;14.60;99.90
39951;DHT22;25629;51.444;-2.606;2023-09-19T03:17:37;14.60;99.90
39951;DHT22;25629;51.444;-2.606;2023-09-19T03:20:08;14.60;99.90
39951;DHT22;25629;51.444;-2.606;2023-09-19T03:22:34;14.60;99.90
39951;DHT22;25629;51.444;-2.606;2023-09-19T03:25:00;14.60;99.90
39951;DHT22;25629;51.444;-2.606;2023-09-19T03:27:26;14.60;99.90
39951;DHT22;25629;51.444;-2.606;2023-09-19T03:29:52;14.60;99.90
39951;DHT22;25629;51.444;-2.606;2023-09-19T03:32:19;14.60;99.90
39951;DHT22;25629;51.444;-2.606;2023-09-19T03:34:44;14.50;99.90
39951;DHT22;25629;51.444;-2.606;2023-09-19T03:37:10;14.50;99.90
39951;DHT22;25629;51.444;-2.606;2023-09-19T03:39:35;14.50;99.90
39951;DHT22;25629;51.444;-2.606;2023-09-19T03:42:01;14.60;99.90
39951;DHT22;25629;51.444;-2.606;2023-09-19T03:44:28;14.60;99.90
39951;DHT22;25629;51.444;-2.606;2023-09-19T03:46:53;14.60;99.90
39951;DHT22;25629;51.444;-2.606;2023-09-19T03:49:20;14.60;99.90
39951;DHT22;25629;51.444;-2.606;2023-09-19T03:51:46;14.70;99.90
39951;DHT22;25629;51.444;-2.606;2023-09-19T03:54:12;14.70;99.90
39951;DHT22;25629;51.444;-2.606;2023-09-19T03:56:38;14.70;99.90
39951;DHT22;25629;51.444;-2.606;2023-09-19T03:59:03;14.70;99.90
39951;DHT22;25629;51.444;-2.606;2023-09-19T04:01:29;14.70;99.90
39951;DHT22;25629;51.444;-2.606;2023-09-19T04:03:57;14.70;99.90
39951;DHT22;25629;51.444;-2.606;2023-09-19T04:06:23;14.70;99.90
39951;DHT22;25629;51.444;-2.606;2023-09-19T04:08:48;14.80;99.90
39951;DHT22;25629;51.444;-2.606;2023-09-19T04:11:14;14.80;99.90
39951;DHT22;25629;51.444;-2.606;2023-09-19T04:13:40;14.80;98.10
39951;DHT22;25629;51.444;-2.606;2023-09-19T04:16:05;14.80;97.10
39951;DHT22;25629;51.444;-2.606;2023-09-19T04:18:32;14.90;95.80
39951;DHT22;25629;51.444;-2.606;2023-09-19T04:20:58;14.90;93.80
39951;DHT22;25629;51.444;-2.606;2023-09-19T04:23:27;14.90;94.00
39951;DHT22;25629;51.444;-2.606;2023-09-19T04:25:53;14.90;93.50
39951;DHT22;25629;51.444;-2.606;2023-09-19T04:28:19;14.90;93.10
39951;DHT22;25629;51.444;-2.606;2023-09-19T04:30:44;14.90;92.30
39951;DHT22;25629;51.444;-2.606;2023-09-19T04:33:10;14.80;96.90
39951;DHT22;25629;51.444;-2.606;2023-09-19T04:35:35;14.80;99.90
39951;DHT22;25629;51.444;-2.606;2023-09-19T04:38:01;14.70;99.90
39951;DHT22;25629;51.444;-2.606;2023-09-19T04:40:28;14.60;99.90
39951;DHT22;25629;51.444;-2.606;2023-09-19T04:42:55;14.50;99.90
39951;DHT22;25629;51.444;-2.606;2023-09-19T04:45:25;14.50;99.90
39951;DHT22;25629;51.444;-2.606;2023-09-19T04:47:51;14.40;99.90
39951;DHT22;25629;51.444;-2.606;2023-09-19T04:50:17;14.40;99.90
39951;DHT22;25629;51.444;-2.606;2023-09-19T04:52:44;14.50;99.90
39951;DHT22;25629;51.444;-2.606;2023-09-19T04:55:13;14.40;99.90
39951;DHT22;25629;51.444;-2.606;2023-09-19T04:57:45;14.50;99.90
39951;DHT22;25629;51.444;-2.606;2023-09-19T05:00:15;14.50;99.90
39951;DHT22;25629;51.444;-2.606;2023-09-19T05:02:42;14.60;99.90
39951;DHT22;25629;51.444;-2.606;2023-09-19T05:05:08;14.60;99.90
39951;DHT22;25629;51.444;-2.606;2023-09-19T05:07:35;14.60;99.90
39951;DHT22;25629;51.444;-2.606;2023-09-19T05:10:01;14.70;99.90
39951;DHT22;25629;51.444;-2.606;2023-09-19T05:12:27;14.70;99.90
39951;DHT22;25629;51.444;-2.606;2023-09-19T05:14:52;14.80;99.90
39951;DHT22;25629;51.444;-2.606;2023-09-19T05:17:18;14.80;99.90
39951;DHT22;25629;51.444;-2.606;2023-09-19T05:19:44;14.80;99.90
39951;DHT22;25629;51.444;-2.606;2023-09-19T05:22:11;14.80;99.90
39951;DHT22;25629;51.444;-2.606;2023-09-19T05:24:37;14.80;99.90
39951;DHT22;25629;51.444;-2.606;2023-09-19T05:27:04;14.80;99.90
39951;DHT22;25629;51.444;-2.606;2023-09-19T05:29:33;14.90;99.90
39951;DHT22;25629;51.444;-2.606;2023-09-19T05:31:59;14.90;99.90
39951;DHT22;25629;51.444;-2.606;2023-09-19T05:34:24;14.90;99.90
39951;DHT22;25629;51.444;-2.606;2023-09-19T05:36:53;14.90;99.90
39951;DHT22;25629;51.444;-2.606;2023-09-19T05:39:19;15.00;99.90
39951;DHT22;25629;51.444;-2.606;2023-09-19T05:41:45;15.00;99.90
39951;DHT22;25629;51.444;-2.606;2023-09-19T05:44:12;15.10;99.90
39951;DHT22;25629;51.444;-2.606;2023-09-19T05:46:39;15.10;99.90
39951;DHT22;25629;51.444;-2.606;2023-09-19T05:49:05;15.20;99.90
39951;DHT22;25629;51.444;-2.606;2023-09-19T05:51:30;15.20;99.90
39951;DHT22;25629;51.444;-2.606;2023-09-19T05:53:56;15.20;99.90
39951;DHT22;25629;51.444;-2.606;2023-09-19T05:56:23;15.20;99.90
39951;DHT22;25629;51.444;-2.606;2023-09-19T05:58:48;15.20;99.90
39951;DHT22;25629;51.444;-2.606;2023-09-19T06:01:15;15.20;99.90
39951;DHT22;25629;51.444;-2.606;2023-09-19T06:03:40;15.30;99.90
39951;DHT22;25629;51.444;-2.606;2023-09-19T06:06:06;15.30;99.90
39951;DHT22;25629;51.444;-2.606;2023-09-19T06:08:34;15.30;99.90
39951;DHT22;25629;51.444;-2.606;2023-09-19T06:11:00;15.40;99.90
39951;DHT22;25629;51.444;-2.606;2023-09-19T06:13:27;15.40;99.90
39951;DHT22;25629;51.444;-2.606;2023-09-19T06:15:54;15.40;99.90
39951;DHT22;25629;51.444;-2.606;2023-09-19T06:18:19;15.50;99.30
39951;DHT22;25629;51.444;-2.606;2023-09-19T06:20:46;15.50;99.20
39951;DHT22;25629;51.444;-2.606;2023-09-19T06:23:12;15.50;99.90
39951;DHT22;25629;51.444;-2.606;2023-09-19T06:25:37;15.60;99.80
39951;DHT22;25629;51.444;-2.606;2023-09-19T06:28:03;15.60;98.50
39951;DHT22;25629;51.444;-2.606;2023-09-19T06:30:30;15.60;99.10
39951;DHT22;25629;51.444;-2.606;2023-09-19T06:32:57;15.60;98.40
39951;DHT22;25629;51.444;-2.606;2023-09-19T06:35:23;15.60;99.00
39951;DHT22;25629;51.444;-2.606;2023-09-19T06:37:49;15.60;99.90
39951;DHT22;25629;51.444;-2.606;2023-09-19T06:40:16;15.60;99.90
39951;DHT22;25629;51.444;-2.606;2023-09-19T06:42:46;15.60;99.90
39951;DHT22;25629;51.444;-2.606;2023-09-19T06:45:15;15.60;99.90
39951;DHT22;25629;51.444;-2.606;2023-09-19T06:47:46;15.60;99.90
39951;DHT22;25629;51.444;-2.606;2023-09-19T06:50:16;16.70;99.50
39951;DHT22;25629;51.444;-2.606;2023-09-19T06:52:44;15.70;97.70
39951;DHT22;25629;51.444;-2.606;2023-09-19T06:55:11;15.70;95.80
39951;DHT22;25629;51.444;-2.606;2023-09-19T06:57:38;15.80;93.60
39951;DHT22;25629;51.444;-2.606;2023-09-19T07:00:06;15.80;94.10
39951;DHT22;25629;51.444;-2.606;2023-09-19T07:02:37;15.80;93.30
39951;DHT22;25629;51.444;-2.606;2023-09-19T07:05:03;15.80;96.70
39951;DHT22;25629;51.444;-2.606;2023-09-19T07:07:28;15.80;94.90
39951;DHT22;25629;51.444;-2.606;2023-09-19T07:09:54;15.80;93.20
39951;DHT22;25629;51.444;-2.606;2023-09-19T07:12:20;15.90;93.00
39951;DHT22;25629;51.444;-2.606;2023-09-19T07:14:45;15.90;91.90
39951;DHT22;25629;51.444;-2.606;2023-09-19T07:17:11;16.00;90.60
39951;DHT22;25629;51.444;-2.606;2023-09-19T07:19:37;16.10;88.10
39951;DHT22;25629;51.444;-2.606;2023-09-19T07:22:02;16.20;82.40
39951;DHT22;25629;51.444;-2.606;2023-09-19T07:24:28;16.20;83.20
39951;DHT22;25629;51.444;-2.606;2023-09-19T07:26:54;16.20;82.00
39951;DHT22;25629;51.444;-2.606;2023-09-19T07:29:19;16.20;89.60
39951;DHT22;25629;51.444;-2.606;2023-09-19T07:31:45;16.20;83.10
39951;DHT22;25629;51.444;-2.606;2023-09-19T07:34:12;16.30;78.80
39951;DHT22;25629;51.444;-2.606;2023-09-19T07:36:39;16.30;85.00
39951;DHT22;25629;51.444;-2.606;2023-09-19T07:39:06;16.40;78.80
39951;DHT22;25629;51.444;-2.606;2023-09-19T07:41:32;16.30;71.50
39951;DHT22;25629;51.444;-2.606;2023-09-19T07:43:58;16.40;69.60
39951;DHT22;25629;51.444;-2.606;2023-09-19T07:46:23;16.50;66.10
39951;DHT22;25629;51.444;-2.606;2023-09-19T07:48:50;16.50;62.40
39951;DHT22;25629;51.444;-2.606;2023-09-19T07:51:15;16.60;56.60
39951;DHT22;25629;51.444;-2.606;2023-09-19T07:53:41;16.60;54.40
39951;DHT22;25629;51.444;-2.606;2023-09-19T07:56:10;16.60;42.40
39951;DHT22;25629;51.444;-2.606;2023-09-19T07:58:38;16.60;42.80
39951;DHT22;25629;51.444;-2.606;2023-09-19T08:01:07;16.70;40.30
39951;DHT22;25629;51.444;-2.606;2023-09-19T08:03:33;16.70;32.70
39951;DHT22;25629;51.444;-2.606;2023-09-19T08:05:59;16.70;30.80
39951;DHT22;25629;51.444;-2.606;2023-09-19T08:08:26;16.80;19.90
39951;DHT22;25629;51.444;-2.606;2023-09-19T08:10:52;16.90;17.30
39951;DHT22;25629;51.444;-2.606;2023-09-19T08:13:18;17.00;18.90
39951;DHT22;25629;51.444;-2.606;2023-09-19T08:15:44;17.10;21.30
39951;DHT22;25629;51.444;-2.606;2023-09-19T08:18:09;17.20;8.90
39951;DHT22;25629;51.444;-2.606;2023-09-19T08:20:38;17.20;1.00
39951;DHT22;25629;51.444;-2.606;2023-09-19T08:23:04;17.20;1.00
39951;DHT22;25629;51.444;-2.606;2023-09-19T08:25:29;17.10;1.00
39951;DHT22;25629;51.444;-2.606;2023-09-19T08:27:55;17.10;1.00
39951;DHT22;25629;51.444;-2.606;2023-09-19T08:30:23;17.10;1.00
39951;DHT22;25629;51.444;-2.606;2023-09-19T08:33:10;17.00;1.00
39951;DHT22;25629;51.444;-2.606;2023-09-19T08:35:35;17.00;1.00
39951;DHT22;25629;51.444;-2.606;2023-09-19T08:38:02;17.10;14.30
39951;DHT22;25629;51.444;-2.606;2023-09-19T08:40:32;16.90;55.70
39951;DHT22;25629;51.444;-2.606;2023-09-19T08:42:59;16.70;74.10
39951;DHT22;25629;51.444;-2.606;2023-09-19T08:45:24;16.60;92.80
39951;DHT22;25629;51.444;-2.606;2023-09-19T08:50:31;16.40;96.70
39951;DHT22;25629;51.444;-2.606;2023-09-19T08:53:01;16.40;98.40
39951;DHT22;25629;51.444;-2.606;2023-09-19T08:55:35;16.40;97.70
39951;DHT22;25629;51.444;-2.606;2023-09-19T08:58:02;16.40;99.20
39951;DHT22;25629;51.444;-2.606;2023-09-19T09:00:28;16.50;98.80
39951;DHT22;25629;51.444;-2.606;2023-09-19T09:02:54;16.50;99.90
39951;DHT22;25629;51.444;-2.606;2023-09-19T09:05:20;16.70;99.90
39951;DHT22;25629;51.444;-2.606;2023-09-19T09:07:48;16.80;98.40
39951;DHT22;25629;51.444;-2.606;2023-09-19T09:10:17;16.80;99.60
39951;DHT22;25629;51.444;-2.606;2023-09-19T09:12:42;16.80;99.90
39951;DHT22;25629;51.444;-2.606;2023-09-19T09:15:09;16.90;98.30
39951;DHT22;25629;51.444;-2.606;2023-09-19T09:17:37;17.00;97.50
39951;DHT22;25629;51.444;-2.606;2023-09-19T09:20:03;17.10;99.50
39951;DHT22;25629;51.444;-2.606;2023-09-19T09:22:30;17.20;98.90
39951;DHT22;25629;51.444;-2.606;2023-09-19T09:24:57;17.30;97.60
39951;DHT22;25629;51.444;-2.606;2023-09-19T09:27:23;17.40;99.90
39951;DHT22;25629;51.444;-2.606;2023-09-19T09:29:50;17.40;99.40
39951;DHT22;25629;51.444;-2.606;2023-09-19T09:32:26;17.40;99.90
39951;DHT22;25629;51.444;-2.606;2023-09-19T09:34:57;17.30;99.90
39951;DHT22;25629;51.444;-2.606;2023-09-19T09:37:23;17.20;99.90
39951;DHT22;25629;51.444;-2.606;2023-09-19T09:42:29;17.30;99.90
39951;DHT22;25629;51.444;-2.606;2023-09-19T09:47:45;17.70;97.90
39951;DHT22;25629;51.444;-2.606;2023-09-19T09:52:54;17.80;91.40
39951;DHT22;25629;51.444;-2.606;2023-09-19T09:55:26;17.70;93.00
39951;DHT22;25629;51.444;-2.606;2023-09-19T10:00:42;17.70;98.40
39951;DHT22;25629;51.444;-2.606;2023-09-19T10:03:21;17.60;99.90
39951;DHT22;25629;51.444;-2.606;2023-09-19T10:05:52;17.60;99.90
39951;DHT22;25629;51.444;-2.606;2023-09-19T10:08:20;17.40;99.90
39951;DHT22;25629;51.444;-2.606;2023-09-19T10:10:46;17.30;99.90
39951;DHT22;25629;51.444;-2.606;2023-09-19T10:13:17;17.20;99.90
39951;DHT22;25629;51.444;-2.606;2023-09-19T10:15:50;17.20;99.90
39951;DHT22;25629;51.444;-2.606;2023-09-19T10:18:19;17.20;99.90
39951;DHT22;25629;51.444;-2.606;2023-09-19T10:20:46;17.10;99.90
39951;DHT22;25629;51.444;-2.606;2023-09-19T10:23:12;17.10;99.90
39951;DHT22;25629;51.444;-2.606;2023-09-19T10:25:38;17.10;99.90
39951;DHT22;25629;51.444;-2.606;2023-09-19T10:28:10;17.10;99.90
39951;DHT22;25629;51.444;-2.606;2023-09-19T10:30:37;17.10;99.90
39951;DHT22;25629;51.444;-2.606;2023-09-19T10:33:04;17.20;99.90
39951;DHT22;25629;51.444;-2.606;2023-09-19T10:35:33;17.30;99.90
39951;DHT22;25629;51.444;-2.606;2023-09-19T10:37:59;17.30;99.90
39951;DHT22;25629;51.444;-2.606;2023-09-19T10:40:26;17.30;99.90
39951;DHT22;25629;51.444;-2.606;2023-09-19T10:43:02;17.40;99.90
39951;DHT22;25629;51.444;-2.606;2023-09-19T10:45:32;17.50;99.90
39951;DHT22;25629;51.444;-2.606;2023-09-19T10:47:59;17.50;99.90
39951;DHT22;25629;51.444;-2.606;2023-09-19T10:50:25;17.60;99.90
39951;DHT22;25629;51.444;-2.606;2023-09-19T10:52:53;17.60;99.90
39951;DHT22;25629;51.444;-2.606;2023-09-19T10:55:25;17.60;99.90
39951;DHT22;25629;51.444;-2.606;2023-09-19T10:57:54;17.60;99.90
39951;DHT22;25629;51.444;-2.606;2023-09-19T11:00:22;17.60;99.90
39951;DHT22;25629;51.444;-2.606;2023-09-19T11:05:32;17.80;99.90
39951;DHT22;25629;51.444;-2.606;2023-09-19T11:07:59;17.90;99.90
39951;DHT22;25629;51.444;-2.606;2023-09-19T11:10:49;18.00;99.90
39951;DHT22;25629;51.444;-2.606;2023-09-19T11:26:41;17.70;99.90
39951;DHT22;25629;51.444;-2.606;2023-09-19T11:31:52;17.60;99.90
39951;DHT22;25629;51.444;-2.606;2023-09-19T11:48:15;17.90;99.90
39951;DHT22;25629;51.444;-2.606;2023-09-19T11:50:44;17.90;99.90
39951;DHT22;25629;51.444;-2.606;2023-09-19T11:53:13;17.90;99.90
39951;DHT22;25629;51.444;-2.606;2023-09-19T11:55:39;18.00;99.90
39951;DHT22;25629;51.444;-2.606;2023-09-19T11:58:08;18.00;99.90
39951;DHT22;25629;51.444;-2.606;2023-09-19T12:00:35;18.00;99.90
39951;DHT22;25629;51.444;-2.606;2023-09-19T12:03:08;18.00;99.90
39951;DHT22;25629;51.444;-2.606;2023-09-19T12:05:34;18.10;99.90
39951;DHT22;25629;51.444;-2.606;2023-09-19T12:08:00;18.00;99.90
39951;DHT22;25629;51.444;-2.606;2023-09-19T12:10:26;17.90;99.90
39951;DHT22;25629;51.444;-2.606;2023-09-19T12:12:52;17.90;99.90
39951;DHT22;25629;51.444;-2.606;2023-09-19T12:15:27;17.90;99.90
39951;DHT22;25629;51.444;-2.606;2023-09-19T12:17:59;17.90;99.90
39951;DHT22;25629;51.444;-2.606;2023-09-19T12:20:25;17.90;99.90
39951;DHT22;25629;51.444;-2.606;2023-09-19T12:22:50;17.90;99.90
39951;DHT22;25629;51.444;-2.606;2023-09-19T12:25:16;18.00;99.90
39951;DHT22;25629;51.444;-2.606;2023-09-19T12:27:44;18.00;99.90
39951;DHT22;25629;51.444;-2.606;2023-09-19T12:30:12;18.00;99.90
39951;DHT22;25629;51.444;-2.606;2023-09-19T12:32:40;18.00;99.90
39951;DHT22;25629;51.444;-2.606;2023-09-19T12:35:06;18.00;99.90
39951;DHT22;25629;51.444;-2.606;2023-09-19T12:37:36;18.10;99.90
39951;DHT22;25629;51.444;-2.606;2023-09-19T12:40:05;18.10;99.90
39951;DHT22;25629;51.444;-2.606;2023-09-19T12:42:52;18.10;99.90
39951;DHT22;25629;51.444;-2.606;2023-09-19T12:45:19;18.20;99.90
39951;DHT22;25629;51.444;-2.606;2023-09-19T12:50:29;18.20;99.90
39951;DHT22;25629;51.444;-2.606;2023-09-19T12:52:55;18.30;99.90
39951;DHT22;25629;51.444;-2.606;2023-09-19T12:55:28;18.40;99.90
39951;DHT22;25629;51.444;-2.606;2023-09-19T13:00:30;18.30;99.90
39951;DHT22;25629;51.444;-2.606;2023-09-19T13:03:09;18.30;99.90
39951;DHT22;25629;51.444;-2.606;2023-09-19T13:08:38;18.50;99.90
39951;DHT22;25629;51.444;-2.606;2023-09-19T13:11:16;18.60;99.90
39951;DHT22;25629;51.444;-2.606;2023-09-19T13:13:51;18.70;99.90
39951;DHT22;25629;51.444;-2.606;2023-09-19T13:16:21;18.70;99.90
39951;DHT22;25629;51.444;-2.606;2023-09-19T13:18:52;18.80;99.90
39951;DHT22;25629;51.444;-2.606;2023-09-19T13:21:27;18.80;99.90
39951;DHT22;25629;51.444;-2.606;2023-09-19T13:23:53;18.90;99.90
39951;DHT22;25629;51.444;-2.606;2023-09-19T13:26:27;19.10;99.90
39951;DHT22;25629;51.444;-2.606;2023-09-19T13:28:54;19.10;99.90
39951;DHT22;25629;51.444;-2.606;2023-09-19T13:31:19;19.30;99.90
39951;DHT22;25629;51.444;-2.606;2023-09-19T13:33:45;19.40;99.90
39951;DHT22;25629;51.444;-2.606;2023-09-19T13:36:12;19.50;99.90
39951;DHT22;25629;51.444;-2.606;2023-09-19T13:38:39;19.50;99.90
39951;DHT22;25629;51.444;-2.606;2023-09-19T13:41:05;19.50;99.90
39951;DHT22;25629;51.444;-2.606;2023-09-19T13:43:31;19.60;99.90
39951;DHT22;25629;51.444;-2.606;2023-09-19T13:45:57;19.70;99.90
39951;DHT22;25629;51.444;-2.606;2023-09-19T13:48:23;19.70;99.90
39951;DHT22;25629;51.444;-2.606;2023-09-19T13:50:49;19.70;99.90
39951;DHT22;25629;51.444;-2.606;2023-09-19T13:53:15;19.70;99.90
39951;DHT22;25629;51.444;-2.606;2023-09-19T13:55:42;19.70;99.90
39951;DHT22;25629;51.444;-2.606;2023-09-19T13:58:07;19.70;99.90
39951;DHT22;25629;51.444;-2.606;2023-09-19T14:00:36;19.70;99.20
39951;DHT22;25629;51.444;-2.606;2023-09-19T14:03:02;19.80;99.40
39951;DHT22;25629;51.444;-2.606;2023-09-19T14:05:29;19.80;99.90
39951;DHT22;25629;51.444;-2.606;2023-09-19T14:07:55;19.80;98.80
39951;DHT22;25629;51.444;-2.606;2023-09-19T14:10:21;19.90;97.50
39951;DHT22;25629;51.444;-2.606;2023-09-19T14:12:47;19.90;94.80
39951;DHT22;25629;51.444;-2.606;2023-09-19T14:15:13;19.90;92.60
39951;DHT22;25629;51.444;-2.606;2023-09-19T14:17:39;19.90;94.00
39951;DHT22;25629;51.444;-2.606;2023-09-19T14:20:07;19.90;94.00
39951;DHT22;25629;51.444;-2.606;2023-09-19T14:22:35;19.90;94.30
39951;DHT22;25629;51.444;-2.606;2023-09-19T14:25:04;19.90;96.80
39951;DHT22;25629;51.444;-2.606;2023-09-19T14:27:30;19.90;95.60
39951;DHT22;25629;51.444;-2.606;2023-09-19T14:29:56;20.00;95.70
39951;DHT22;25629;51.444;-2.606;2023-09-19T14:32:22;20.10;94.80
39951;DHT22;25629;51.444;-2.606;2023-09-19T14:34:48;20.10;95.90
39951;DHT22;25629;51.444;-2.606;2023-09-19T14:37:14;20.20;95.30
39951;DHT22;25629;51.444;-2.606;2023-09-19T14:39:41;20.30;95.60
39951;DHT22;25629;51.444;-2.606;2023-09-19T14:42:10;20.50;91.10
39951;DHT22;25629;51.444;-2.606;2023-09-19T14:44:35;20.60;85.40
39951;DHT22;25629;51.444;-2.606;2023-09-19T14:47:03;20.60;90.80
39951;DHT22;25629;51.444;-2.606;2023-09-19T14:49:33;20.40;95.30
39951;DHT22;25629;51.444;-2.606;2023-09-19T14:51:58;20.10;99.90
39951;DHT22;25629;51.444;-2.606;2023-09-19T14:54:24;19.80;99.90
39951;DHT22;25629;51.444;-2.606;2023-09-19T14:56:50;19.70;99.90
39951;DHT22;25629;51.444;-2.606;2023-09-19T14:59:19;19.70;99.90
39951;DHT22;25629;51.444;-2.606;2023-09-19T15:01:45;19.90;99.90
39951;DHT22;25629;51.444;-2.606;2023-09-19T15:04:11;20.10;99.90
39951;DHT22;25629;51.444;-2.606;2023-09-19T15:06:36;20.10;99.90
39951;DHT22;25629;51.444;-2.606;2023-09-19T15:09:02;20.10;99.90
39951;DHT22;25629;51.444;-2.606;2023-09-19T15:11:30;20.50;98.60
39951;DHT22;25629;51.444;-2.606;2023-09-19T15:13:55;20.60;95.50
39951;DHT22;25629;51.444;-2.606;2023-09-19T15:16:22;20.60;94.70
39951;DHT22;25629;51.444;-2.606;2023-09-19T15:18:47;20.60;90.30
39951;DHT22;25629;51.444;-2.606;2023-09-19T15:21:13;20.60;91.70
39951;DHT22;25629;51.444;-2.606;2023-09-19T15:23:40;20.60;82.80
39951;DHT22;25629;51.444;-2.606;2023-09-19T15:26:11;20.40;82.60
39951;DHT22;25629;51.444;-2.606;2023-09-19T15:28:37;20.30;85.70
39951;DHT22;25629;51.444;-2.606;2023-09-19T15:31:03;20.10;84.30
39951;DHT22;25629;51.444;-2.606;2023-09-19T15:33:30;20.00;89.40
39951;DHT22;25629;51.444;-2.606;2023-09-19T15:36:09;19.80;91.20
39951;DHT22;25629;51.444;-2.606;2023-09-19T15:41:37;19.80;95.50
39951;DHT22;25629;51.444;-2.606;2023-09-19T15:44:12;19.50;99.90
39951;DHT22;25629;51.444;-2.606;2023-09-19T15:46:38;19.30;99.90
39951;DHT22;25629;51.444;-2.606;2023-09-19T15:49:04;19.00;99.90
39951;DHT22;25629;51.444;-2.606;2023-09-19T15:51:30;18.80;99.90
39951;DHT22;25629;51.444;-2.606;2023-09-19T15:53:56;18.60;99.90
39951;DHT22;25629;51.444;-2.606;2023-09-19T15:56:22;18.40;99.90
39951;DHT22;25629;51.444;-2.606;2023-09-19T15:58:52;18.30;99.90
39951;DHT22;25629;51.444;-2.606;2023-09-19T16:01:19;18.20;99.90
39951;DHT22;25629;51.444;-2.606;2023-09-19T16:03:48;18.10;99.90
39951;DHT22;25629;51.444;-2.606;2023-09-19T16:06:15;18.10;99.90
39951;DHT22;25629;51.444;-2.606;2023-09-19T16:08:44;18.00;99.90
39951;DHT22;25629;51.444;-2.606;2023-09-19T16:11:10;17.90;99.90
39951;DHT22;25629;51.444;-2.606;2023-09-19T16:13:40;17.80;99.90
39951;DHT22;25629;51.444;-2.606;2023-09-19T16:16:13;17.80;99.90
39951;DHT22;25629;51.444;-2.606;2023-09-19T16:18:48;17.80;99.90
39951;DHT22;25629;51.444;-2.606;2023-09-19T16:21:14;17.90;99.90
39951;DHT22;25629;51.444;-2.606;2023-09-19T16:23:39;17.90;99.90
39951;DHT22;25629;51.444;-2.606;2023-09-19T16:28:35;18.10;99.90
39951;DHT22;25629;51.444;-2.606;2023-09-19T16:31:02;18.10;99.90
39951;DHT22;25629;51.444;-2.606;2023-09-19T16:33:29;18.20;99.90